Time;durP1;ratioP1;P1;durP2;ratioP2;P2;SDS_P1;SDS_P2;PMS_P1;PMS_P2;Temp;Humidity;BMP_temperature;BMP_pressure;BME280_temperature;BME280_humidity;BME280_pressure;Samples;Min_cycle;Max_cycle;Signal;HPM_P1;HPM_P2
2021/08/22 00:00:54;;;;;;;18.48;4.72;;;;;;;19.46;74.55;100548.00;4932553;29;20079;-96
2021/08/22 00:03:20;;;;;;;14.65;5.05;;;;;;;19.14;75.54;100543.31;4927993;29;20031;-96
2021/08/22 00:05:45;;;;;;;11.82;4.43;;;;;;;19.38;74.87;100545.28;4932182;29;20028;-96
2021/08/22 00:08:12;;;;;;;15.27;4.95;;;;;;;19.53;74.23;100550.84;4950888;29;20055;-96
2021/08/22 00:10:37;;;;;;;12.63;3.90;;;;;;;19.45;74.18;100549.00;4929626;29;20024;-96
2021/08/22 00:13:03;;;;;;;7.10;3.70;;;;;;;19.53;73.57;100548.19;4925481;29;20466;-96
2021/08/22 00:15:28;;;;;;;16.20;4.55;;;;;;;19.50;73.59;100554.66;4927471;29;20075;-96
2021/08/22 00:17:54;;;;;;;8.77;3.95;;;;;;;19.51;73.43;100544.84;4928239;29;20023;-96
2021/08/22 00:20:21;;;;;;;19.88;4.50;;;;;;;19.28;75.10;100555.22;4934842;29;20051;-96
2021/08/22 00:22:48;;;;;;;10.13;3.70;;;;;;;19.38;74.53;100546.13;4931873;29;20020;-96
2021/08/22 00:25:13;;;;;;;19.40;5.43;;;;;;;19.36;75.18;100547.28;4936526;29;20060;-96
2021/08/22 00:27:39;;;;;;;14.18;4.25;;;;;;;19.40;74.50;100545.97;4934641;29;20035;-96
2021/08/22 00:30:06;;;;;;;11.93;4.38;;;;;;;19.44;74.50;100543.81;4930701;29;20051;-96
2021/08/22 00:32:31;;;;;;;8.38;3.28;;;;;;;19.44;73.98;100546.50;4931715;29;20055;-96
2021/08/22 00:34:56;;;;;;;16.45;3.50;;;;;;;19.39;74.75;100541.63;4929569;29;20118;-96
2021/08/22 00:37:26;;;;;;;9.20;3.92;;;;;;;19.33;74.63;100547.56;4934146;23;20094;-96
2021/08/22 00:39:51;;;;;;;7.90;3.50;;;;;;;19.36;74.39;100547.28;4937649;29;20051;-96
2021/08/22 00:42:16;;;;;;;8.05;3.67;;;;;;;19.26;75.45;100542.06;4938042;29;20028;-96
2021/08/22 00:44:41;;;;;;;14.18;4.05;;;;;;;19.35;74.60;100549.13;4937816;29;20183;-96
2021/08/22 00:47:07;;;;;;;17.92;4.40;;;;;;;19.23;74.96;100542.38;4931846;29;20016;-96
2021/08/22 00:49:33;;;;;;;16.10;4.00;;;;;;;19.17;75.22;100540.34;4944027;29;20043;-96
2021/08/22 00:51:58;;;;;;;16.73;4.35;;;;;;;19.22;75.28;100538.88;4942169;29;20028;-96
2021/08/22 00:54:24;;;;;;;16.15;4.55;;;;;;;19.30;74.40;100538.09;4924351;29;20087;-96
2021/08/22 00:56:51;;;;;;;10.27;3.78;;;;;;;19.36;74.22;100539.28;4926821;29;20051;-96
2021/08/22 00:59:22;;;;;;;9.73;3.58;;;;;;;19.31;74.64;100542.44;4926851;29;20403;-96
2021/08/22 01:01:54;;;;;;;18.60;4.90;;;;;;;19.25;75.14;100547.53;4925132;29;20055;-96
2021/08/22 01:04:35;;;;;;;13.93;4.57;;;;;;;19.33;74.35;100548.44;4924331;29;20273;-96
2021/08/22 01:07:20;;;;;;;15.30;4.15;;;;;;;19.35;73.91;100557.09;4924305;29;20025;-96
2021/08/22 01:09:50;;;;;;;18.38;4.63;;;;;;;19.24;74.63;100554.69;4929048;29;20430;-96
2021/08/22 01:12:46;;;;;;;13.90;4.38;;;;;;;19.24;75.00;100554.69;4930623;29;20012;-96
2021/08/22 01:15:13;;;;;;;9.55;3.65;;;;;;;19.19;74.71;100556.97;4940188;29;20035;-96
2021/08/22 01:17:51;;;;;;;5.70;3.13;;;;;;;19.27;74.49;100554.38;4925138;29;20507;-96
2021/08/22 01:20:38;;;;;;;9.70;3.33;;;;;;;19.26;74.44;100560.69;4927735;29;20032;-96
2021/08/22 01:23:06;;;;;;;14.15;3.97;;;;;;;19.23;74.60;100563.66;4925261;29;20027;-96
2021/08/22 01:25:36;;;;;;;11.43;3.40;;;;;;;19.25;74.58;100560.84;4924962;29;20059;-96
2021/08/22 01:28:04;;;;;;;14.10;3.78;;;;;;;19.09;75.77;100561.56;4921639;29;20398;-96
2021/08/22 01:30:35;;;;;;;16.60;3.90;;;;;;;19.24;75.33;100557.34;4918576;29;20074;-96
2021/08/22 01:33:01;;;;;;;6.90;2.93;;;;;;;19.18;75.89;100550.00;4918997;29;20051;-96
2021/08/22 01:35:26;;;;;;;10.98;3.17;;;;;;;19.25;75.05;100556.34;4918801;29;20081;-96
2021/08/22 01:37:54;;;;;;;12.50;3.50;;;;;;;19.34;74.83;100555.41;4918594;29;20659;-96
2021/08/22 01:40:21;;;;;;;25.88;6.05;;;;;;;19.25;75.32;100560.84;4919036;29;20036;-96
2021/08/22 01:42:48;;;;;;;12.40;3.60;;;;;;;19.31;74.73;100563.72;4918802;29;20031;-96
2021/08/22 01:45:17;;;;;;;12.07;2.92;;;;;;;19.31;74.52;100560.22;4918556;29;20027;-96
2021/08/22 01:47:48;;;;;;;9.43;3.60;;;;;;;19.34;74.53;100554.59;4919976;29;20039;-96
2021/08/22 01:50:17;;;;;;;9.55;3.05;;;;;;;19.20;75.26;100558.66;4922928;29;20027;-96
2021/08/22 01:52:42;;;;;;;8.73;3.10;;;;;;;19.21;75.10;100555.00;4921967;29;20083;-96
2021/08/22 01:55:09;;;;;;;6.00;2.85;;;;;;;19.31;74.71;100560.22;4922542;29;20020;-96
2021/08/22 01:57:38;;;;;;;12.00;3.95;;;;;;;19.31;74.72;100562.88;4922142;29;20028;-96
2021/08/22 02:00:04;;;;;;;14.00;3.17;;;;;;;19.30;74.75;100564.72;4922178;29;20545;-96
2021/08/22 02:02:29;;;;;;;8.68;2.97;;;;;;;19.27;74.27;100565.00;4923592;29;20454;-96
2021/08/22 02:04:59;;;;;;;7.82;3.60;;;;;;;19.35;74.97;100570.41;4924006;29;20034;-96
2021/08/22 02:07:30;;;;;;;14.73;3.13;;;;;;;19.34;75.57;100567.91;4924672;29;20032;-96
2021/08/22 02:10:06;;;;;;;12.93;3.92;;;;;;;19.47;75.10;100576.31;4922075;29;20024;-96
2021/08/22 02:12:32;;;;;;;10.73;2.72;;;;;;;19.38;75.27;100577.25;4922869;29;20023;-96
2021/08/22 02:15:24;;;;;;;9.25;2.58;;;;;;;19.48;75.30;100585.13;4932966;29;20051;-96
2021/08/22 02:17:54;;;;;;;12.65;4.18;;;;;;;19.43;75.72;100582.91;4936551;29;20031;-96
2021/08/22 02:20:21;;;;;;;6.30;2.53;;;;;;;19.49;75.15;100590.28;4940872;29;20063;-96
2021/08/22 02:22:48;;;;;;;12.88;3.17;;;;;;;19.45;75.47;100580.09;4937487;29;20046;-96
2021/08/22 02:25:14;;;;;;;8.32;3.10;;;;;;;19.42;75.66;100584.75;4932348;29;20028;-96
2021/08/22 02:27:40;;;;;;;8.68;2.53;;;;;;;19.46;74.87;100585.28;4931483;29;20028;-96
2021/08/22 02:30:07;;;;;;;8.80;2.83;;;;;;;19.47;75.00;100586.97;4931627;29;20087;-96
2021/08/22 02:32:32;;;;;;;15.90;2.85;;;;;;;19.41;75.33;100588.41;4931661;29;20104;-96
2021/08/22 02:34:58;;;;;;;12.52;2.83;;;;;;;19.47;74.71;100586.09;4930044;29;20028;-96
2021/08/22 02:37:23;;;;;;;15.45;2.70;;;;;;;19.51;74.66;100588.31;4929872;29;20027;-96
2021/08/22 02:39:49;;;;;;;12.65;3.17;;;;;;;19.51;74.60;100590.13;4927642;29;20054;-96
2021/08/22 02:42:15;;;;;;;4.82;2.20;;;;;;;19.52;74.23;100591.78;4928645;29;20031;-96
2021/08/22 02:44:42;;;;;;;8.73;2.55;;;;;;;19.49;74.74;100589.44;4931067;29;20043;-96
2021/08/22 02:47:08;;;;;;;6.80;2.42;;;;;;;19.49;74.22;100584.13;4931100;29;20051;-96
2021/08/22 02:49:33;;;;;;;13.27;2.55;;;;;;;19.43;73.77;100588.22;4929428;29;20036;-96
2021/08/22 02:51:58;;;;;;;11.85;2.70;;;;;;;19.41;73.92;100595.53;4925892;29;20019;-95
2021/08/22 02:54:24;;;;;;;12.30;2.75;;;;;;;19.36;74.65;100588.03;4924331;29;20066;-96
2021/08/22 02:56:49;;;;;;;14.32;2.92;;;;;;;19.45;74.13;100593.41;4925863;29;20393;-96
2021/08/22 02:59:15;;;;;;;10.88;2.80;;;;;;;19.38;74.36;100587.88;4926059;29;20047;-96
2021/08/22 03:01:40;;;;;;;9.32;2.70;;;;;;;19.34;75.17;100592.69;4929730;29;20063;-96
2021/08/22 03:04:05;;;;;;;18.55;3.03;;;;;;;19.34;74.86;100587.38;4924785;29;20016;-96
2021/08/22 03:06:31;;;;;;;13.55;3.28;;;;;;;19.33;74.93;100595.50;4940912;29;20090;-96
2021/08/22 03:08:56;;;;;;;14.88;2.78;;;;;;;19.36;74.43;100584.56;4930234;29;20024;-96
2021/08/22 03:11:21;;;;;;;8.10;3.00;;;;;;;19.41;74.40;100599.06;4946782;29;20114;-96
2021/08/22 03:13:49;;;;;;;10.13;3.00;;;;;;;19.39;74.51;100587.75;4927748;29;20035;-96
2021/08/22 03:16:15;;;;;;;11.30;3.13;;;;;;;19.44;74.46;100597.09;4926952;29;20027;-96
2021/08/22 03:18:40;;;;;;;10.25;2.60;;;;;;;19.44;74.60;100597.09;4925987;29;20035;-96
2021/08/22 03:21:06;;;;;;;7.97;2.63;;;;;;;19.47;74.25;100604.75;4926255;29;20028;-96
2021/08/22 03:23:31;;;;;;;16.00;4.13;;;;;;;19.50;74.34;100604.44;4922368;29;20028;-96
2021/08/22 03:25:56;;;;;;;13.82;3.05;;;;;;;19.26;75.86;100595.31;4928785;29;20036;-96
2021/08/22 03:28:22;;;;;;;8.50;3.03;;;;;;;19.41;75.23;100603.53;4927031;29;20024;-96
2021/08/22 03:30:51;;;;;;;10.73;2.88;;;;;;;19.51;75.08;100598.09;4929180;29;20091;-96
2021/08/22 03:33:17;;;;;;;20.95;3.30;;;;;;;19.47;75.14;100594.94;4928724;29;20110;-96
2021/08/22 03:35:42;;;;;;;10.63;2.85;;;;;;;19.48;75.00;100593.09;4923840;29;20024;-96
2021/08/22 03:38:07;;;;;;;14.48;2.97;;;;;;;19.49;75.03;100600.09;4925573;29;20023;-96
2021/08/22 03:40:33;;;;;;;9.95;2.90;;;;;;;19.54;75.08;100597.81;4926170;29;20028;-96
2021/08/22 03:42:58;;;;;;;19.10;4.22;;;;;;;19.48;75.57;100599.25;4922399;29;20034;-96
2021/08/22 03:45:24;;;;;;;21.45;4.40;;;;;;;19.26;76.23;100591.81;4920134;29;20074;-96
2021/08/22 03:47:49;;;;;;;21.67;3.50;;;;;;;19.38;76.42;100585.22;4920180;29;20050;-96
2021/08/22 03:50:16;;;;;;;11.23;3.50;;;;;;;19.57;75.75;100597.50;4919867;29;20036;-96
2021/08/22 03:52:42;;;;;;;12.82;3.78;;;;;;;19.57;75.86;100592.16;4921415;29;20028;-95
2021/08/22 03:55:07;;;;;;;18.98;4.38;;;;;;;19.45;76.67;100588.94;4920087;29;20027;-95
2021/08/22 03:57:33;;;;;;;9.25;3.45;;;;;;;19.68;76.08;100594.53;4919747;29;20438;-96
2021/08/22 03:59:58;;;;;;;14.52;4.60;;;;;;;19.49;76.49;100584.97;4919990;29;20034;-96
2021/08/22 04:02:24;;;;;;;10.50;3.53;;;;;;;19.63;76.43;100596.88;4920615;29;20122;-95
2021/08/22 04:04:49;;;;;;;11.15;3.58;;;;;;;19.68;75.64;100594.53;4919897;29;20501;-96
2021/08/22 04:07:15;;;;;;;9.43;3.70;;;;;;;19.70;75.29;100584.56;4919869;29;20036;-95
2021/08/22 04:09:40;;;;;;;14.13;3.58;;;;;;;19.70;74.42;100595.22;4919487;29;20035;-96
2021/08/22 04:12:06;;;;;;;9.73;3.40;;;;;;;19.59;75.00;100600.84;4918916;29;20035;-95
2021/08/22 04:14:31;;;;;;;10.35;3.58;;;;;;;19.60;74.84;100607.81;4924633;29;20020;-96
2021/08/22 04:16:57;;;;;;;7.80;3.00;;;;;;;19.56;74.25;100606.47;4944280;28;20022;-96
2021/08/22 04:19:22;;;;;;;9.00;3.50;;;;;;;19.50;74.30;100607.94;4944088;29;20023;-96
2021/08/22 04:21:48;;;;;;;8.40;3.55;;;;;;;19.46;74.56;100601.25;4923971;29;20031;-95
2021/08/22 04:24:14;;;;;;;14.90;4.63;;;;;;;19.44;74.67;100608.56;4920321;29;20430;-96
2021/08/22 04:26:40;;;;;;;12.95;3.60;;;;;;;19.39;74.17;100605.53;4919783;29;20042;-96
2021/08/22 04:29:05;;;;;;;13.85;4.25;;;;;;;19.32;75.14;100596.50;4919742;29;20040;-95
2021/08/22 04:31:31;;;;;;;10.30;3.60;;;;;;;19.31;74.73;100598.34;4919814;29;20083;-96
2021/08/22 04:33:56;;;;;;;10.38;3.72;;;;;;;19.32;75.91;100600.00;4921591;29;20055;-96
2021/08/22 04:36:21;;;;;;;10.60;3.80;;;;;;;19.35;75.57;100613.00;4919245;29;20042;-96
2021/08/22 04:38:47;;;;;;;19.85;4.45;;;;;;;19.34;75.78;100621.97;4920121;29;20101;-96
2021/08/22 04:41:17;;;;;;;12.35;4.43;;;;;;;19.38;76.25;100612.69;4919435;29;20027;-95
2021/08/22 04:43:42;;;;;;;17.70;4.93;;;;;;;19.32;76.47;100615.16;4919568;29;20061;-95
2021/08/22 04:46:08;;;;;;;16.52;4.60;;;;;;;19.35;76.41;100614.81;4919552;29;20035;-96
2021/08/22 04:48:33;;;;;;;18.40;4.40;;;;;;;19.26;76.79;100621.09;4919658;29;20569;-96
2021/08/22 04:50:58;;;;;;;13.70;4.65;;;;;;;19.43;76.06;100622.84;4919494;29;20035;-96
2021/08/22 04:53:24;;;;;;;11.73;3.97;;;;;;;19.40;75.29;100623.19;4919891;29;20027;-96
2021/08/22 04:55:49;;;;;;;15.27;5.45;;;;;;;19.32;76.35;100631.94;4919971;29;20034;-96
2021/08/22 04:58:14;;;;;;;13.85;4.80;;;;;;;19.39;75.92;100633.00;4919324;29;20080;-96
2021/08/22 05:00:40;;;;;;;13.60;4.95;;;;;;;19.45;75.56;100628.03;4919069;29;20421;-94
2021/08/22 05:03:05;;;;;;;12.95;4.95;;;;;;;19.39;75.62;100633.00;4919385;29;20024;-96
2021/08/22 05:05:30;;;;;;;9.32;4.53;;;;;;;19.33;75.44;100633.63;4918926;29;20023;-94
2021/08/22 05:07:59;;;;;;;9.07;3.90;;;;;;;19.36;75.59;100627.97;4919190;29;20024;-96
2021/08/22 05:10:25;;;;;;;14.77;4.85;;;;;;;19.35;75.88;100636.97;4919231;29;20027;-96
2021/08/22 05:12:50;;;;;;;17.02;5.85;;;;;;;19.36;75.73;100641.28;4919116;29;20075;-96
2021/08/22 05:15:16;;;;;;;13.98;4.78;;;;;;;19.35;75.57;100642.31;4918890;29;20032;-96
2021/08/22 05:17:41;;;;;;;12.02;4.43;;;;;;;19.21;76.27;100645.50;4919214;29;20031;-96
2021/08/22 05:20:08;;;;;;;17.88;5.45;;;;;;;19.28;76.77;100649.22;4919113;29;20115;-96
2021/08/22 05:22:34;;;;;;;10.25;5.15;;;;;;;19.32;75.94;100653.25;4921365;29;20122;-96
2021/08/22 05:24:59;;;;;;;14.43;5.05;;;;;;;19.38;76.05;100657.94;4922851;29;20074;-96
2021/08/22 05:27:24;;;;;;;14.98;5.45;;;;;;;19.38;76.31;100670.44;4922802;29;20530;-96
2021/08/22 05:29:50;;;;;;;14.15;5.75;;;;;;;19.40;76.15;100671.09;4922662;29;20031;-95
2021/08/22 05:32:15;;;;;;;20.27;7.40;;;;;;;19.37;76.81;100672.25;4922928;29;20121;-96
2021/08/22 05:34:40;;;;;;;14.70;5.85;;;;;;;19.52;76.22;100682.34;4922603;29;20086;-96
2021/08/22 05:37:06;;;;;;;11.43;5.80;;;;;;;19.58;76.44;100682.53;4923118;29;20131;-96
2021/08/22 05:39:31;;;;;;;10.32;5.13;;;;;;;19.63;76.22;100692.75;4923362;29;20032;-96
2021/08/22 05:41:57;;;;;;;10.10;5.50;;;;;;;19.55;76.63;100682.88;4924454;29;20123;-96
2021/08/22 05:44:22;;;;;;;11.07;5.28;;;;;;;19.66;76.55;100692.41;4924896;29;20055;-96
2021/08/22 05:46:47;;;;;;;17.88;5.63;;;;;;;19.72;76.22;100694.50;4924645;29;20020;-96
2021/08/22 05:49:13;;;;;;;13.23;5.55;;;;;;;19.73;76.25;100698.84;4941599;29;20039;-96
2021/08/22 05:51:42;;;;;;;20.40;6.40;;;;;;;19.75;76.22;100702.19;4924051;29;20046;-96
2021/08/22 05:54:08;;;;;;;10.93;5.10;;;;;;;19.84;76.04;100707.56;4927039;29;20035;-95
2021/08/22 05:56:33;;;;;;;10.52;4.65;;;;;;;19.88;75.87;100709.75;4931225;29;20020;-96
2021/08/22 05:58:58;;;;;;;13.82;5.43;;;;;;;19.93;75.67;100710.13;4931048;29;20078;-95
2021/08/22 06:01:24;;;;;;;13.43;5.57;;;;;;;19.97;75.10;100721.28;4931144;29;20043;-95
2021/08/22 06:03:49;;;;;;;14.63;5.55;;;;;;;19.93;75.69;100715.44;4932478;29;20055;-95
2021/08/22 06:06:15;;;;;;;12.70;5.40;;;;;;;19.96;75.79;100724.94;4932338;29;20191;-95
2021/08/22 06:08:40;;;;;;;14.80;6.82;;;;;;;20.04;75.51;100724.97;4932047;29;20024;-96
2021/08/22 06:11:05;;;;;;;14.98;5.53;;;;;;;20.06;75.42;100730.16;4931405;29;20023;-95
2021/08/22 06:13:31;;;;;;;18.15;5.45;;;;;;;20.09;74.97;100725.34;4931055;29;20467;-95
2021/08/22 06:15:56;;;;;;;19.58;5.82;;;;;;;20.01;75.11;100728.81;4931936;29;20096;-96
2021/08/22 06:18:22;;;;;;;9.20;5.00;;;;;;;20.12;75.01;100735.72;4932288;29;20106;-96
2021/08/22 06:20:47;;;;;;;10.50;5.57;;;;;;;20.03;74.76;100723.34;4948237;29;20035;-96
2021/08/22 06:23:13;;;;;;;15.25;6.03;;;;;;;20.16;74.78;100738.88;4931278;29;20070;-95
2021/08/22 06:25:38;;;;;;;14.20;5.63;;;;;;;19.99;74.77;100735.31;4931772;29;20123;-95
2021/08/22 06:28:04;;;;;;;14.52;5.10;;;;;;;20.00;75.19;100732.47;4932511;29;20024;-95
2021/08/22 06:30:30;;;;;;;15.02;5.60;;;;;;;20.25;74.98;100745.09;4930181;29;20112;-96
2021/08/22 06:32:56;;;;;;;11.52;5.28;;;;;;;20.38;75.11;100745.50;4931831;29;20027;-96
2021/08/22 06:35:21;;;;;;;11.85;4.93;;;;;;;20.53;74.76;100759.88;4930816;29;20032;-96
2021/08/22 06:37:46;;;;;;;14.05;4.93;;;;;;;20.67;74.11;100757.63;4932683;29;20100;-96
2021/08/22 06:40:12;;;;;;;7.65;4.35;;;;;;;20.82;74.07;100756.03;4932299;29;20083;-96
2021/08/22 06:42:37;;;;;;;11.32;4.70;;;;;;;20.62;73.06;100763.47;4933248;29;20027;-96
2021/08/22 06:45:04;;;;;;;7.40;4.15;;;;;;;20.53;72.78;100772.41;4935163;29;20091;-96
2021/08/22 06:47:29;;;;;;;9.50;4.10;;;;;;;20.58;72.80;100773.59;4934303;29;20071;-96
2021/08/22 06:49:55;;;;;;;10.45;3.90;;;;;;;20.59;72.83;100775.28;4932965;29;20032;-96
2021/08/22 06:52:20;;;;;;;10.27;4.10;;;;;;;20.69;72.90;100779.66;4950262;29;20028;-96
2021/08/22 06:54:45;;;;;;;8.65;3.80;;;;;;;20.59;73.10;100785.94;4935622;29;20039;-96
2021/08/22 06:57:12;;;;;;;13.48;4.35;;;;;;;20.74;74.37;100785.34;4952144;29;20028;-96
2021/08/22 06:59:38;;;;;;;8.18;4.40;;;;;;;21.16;73.01;100784.47;4935392;29;20151;-96
2021/08/22 07:02:04;;;;;;;9.48;4.03;;;;;;;21.75;72.75;100785.19;4936793;29;20047;-96
2021/08/22 07:04:31;;;;;;;8.68;3.75;;;;;;;22.27;71.62;100791.97;4938895;29;20007;-96
2021/08/22 07:06:57;;;;;;;5.10;3.00;;;;;;;21.93;67.51;100798.38;4959660;29;20012;-96
2021/08/22 07:09:28;;;;;;;8.80;2.85;;;;;;;21.53;68.48;100791.22;4942897;29;20055;-96
2021/08/22 07:11:54;;;;;;;5.60;2.85;;;;;;;21.75;68.34;100803.91;4942248;29;20012;-96
2021/08/22 07:14:19;;;;;;;10.57;3.13;;;;;;;21.26;68.79;100809.19;4924099;29;20040;-96
2021/08/22 07:16:45;;;;;;;6.15;2.92;;;;;;;21.51;68.00;100812.75;4940108;29;20055;-96
2021/08/22 07:19:12;;;;;;;5.55;2.60;;;;;;;21.31;67.68;100806.84;4924173;29;20036;-96
2021/08/22 07:21:39;;;;;;;5.25;2.70;;;;;;;21.35;68.62;100808.19;4924279;29;20040;-96
2021/08/22 07:24:04;;;;;;;8.82;2.70;;;;;;;21.35;68.75;100815.38;4937438;29;20078;-96
2021/08/22 07:26:30;;;;;;;3.95;2.30;;;;;;;21.31;69.10;100817.53;4938198;29;20043;-95
2021/08/22 07:28:55;;;;;;;6.25;2.10;;;;;;;21.46;69.29;100822.25;4936910;29;20030;-96
2021/08/22 07:31:21;;;;;;;4.68;2.40;;;;;;;21.43;68.41;100825.25;4938116;29;20028;-96
2021/08/22 07:33:47;;;;;;;7.20;2.35;;;;;;;21.47;68.55;100831.97;4953974;29;20034;-96
2021/08/22 07:36:14;;;;;;;6.75;2.30;;;;;;;22.29;68.07;100838.13;4939665;29;20036;-96
2021/08/22 07:38:41;;;;;;;2.83;2.03;;;;;;;22.75;66.63;100829.47;4941923;29;20032;-96
2021/08/22 07:41:10;;;;;;;4.85;2.63;;;;;;;23.08;64.65;100838.19;4943479;29;20024;-96
2021/08/22 07:43:35;;;;;;;4.30;1.95;;;;;;;23.97;64.37;100844.97;5019483;23;20091;-96
2021/08/22 07:46:01;;;;;;;6.10;1.90;;;;;;;24.77;62.56;100847.00;5082454;23;20050;-96
2021/08/22 07:48:26;;;;;;;3.67;2.13;;;;;;;25.28;61.50;100843.53;4954688;29;20046;-96
2021/08/22 07:50:52;;;;;;;8.45;2.28;;;;;;;25.02;59.64;100839.47;4944691;29;20110;-96
2021/08/22 07:53:18;;;;;;;5.40;1.77;;;;;;;24.59;58.81;100841.19;4943598;29;20103;-96
2021/08/22 07:55:44;;;;;;;3.63;1.55;;;;;;;24.42;59.07;100844.00;4941691;29;20482;-96
2021/08/22 07:58:09;;;;;;;4.20;1.30;;;;;;;24.79;58.61;100847.66;4941011;29;20024;-96
2021/08/22 08:00:34;;;;;;;4.93;1.33;;;;;;;24.61;59.46;100849.91;4921628;29;20027;-96
2021/08/22 08:03:00;;;;;;;7.07;1.23;;;;;;;24.79;58.42;100852.19;4938690;29;20086;-96
2021/08/22 08:05:27;;;;;;;3.67;1.38;;;;;;;26.18;56.20;100857.38;4938802;29;20027;-96
2021/08/22 08:07:52;;;;;;;5.95;1.33;;;;;;;27.43;53.65;100856.38;4940484;29;20036;-96
2021/08/22 08:10:17;;;;;;;4.68;1.23;;;;;;;28.23;52.02;100866.38;4939916;29;20023;-96
2021/08/22 08:12:44;;;;;;;3.08;1.20;;;;;;;29.24;49.59;100868.56;4940230;29;20031;-96
2021/08/22 08:15:10;;;;;;;3.97;1.40;;;;;;;29.42;49.14;100869.72;4937932;29;20110;-96
2021/08/22 08:17:35;;;;;;;4.82;1.50;;;;;;;30.00;44.88;100869.53;4938523;29;20027;-96
2021/08/22 08:20:01;;;;;;;1.50;0.88;;;;;;;29.58;45.93;100874.63;4940027;29;20063;-96
2021/08/22 08:22:26;;;;;;;4.93;1.48;;;;;;;30.23;45.27;100870.78;4940380;29;20177;-96
2021/08/22 08:24:51;;;;;;;4.43;0.70;;;;;;;29.35;47.18;100879.78;4941063;29;20030;-96
2021/08/22 08:27:17;;;;;;;2.88;1.05;;;;;;;29.59;47.02;100886.28;4940301;29;20056;-96
2021/08/22 08:29:42;;;;;;;4.90;0.80;;;;;;;30.06;46.53;100884.06;4936639;29;20031;-96
2021/08/22 08:32:07;;;;;;;4.10;1.13;;;;;;;30.22;43.29;100888.09;4921503;29;20088;-96
2021/08/22 08:34:33;;;;;;;2.70;1.02;;;;;;;30.71;42.66;100880.09;4936419;29;20109;-96
2021/08/22 08:36:58;;;;;;;6.05;1.35;;;;;;;30.80;43.29;100887.69;4937072;29;20101;-96
2021/08/22 08:39:24;;;;;;;1.98;0.68;;;;;;;31.48;42.70;100891.28;4937231;29;20123;-96
2021/08/22 08:41:49;;;;;;;6.45;1.02;;;;;;;31.94;40.45;100889.72;4936576;29;20091;-96
2021/08/22 08:44:14;;;;;;;3.05;0.90;;;;;;;32.14;40.57;100891.28;4936193;29;20035;-96
2021/08/22 08:46:47;;;;;;;2.00;0.82;;;;;;;31.70;39.54;100891.56;4936082;29;20118;-95
2021/08/22 08:49:34;;;;;;;3.30;1.00;;;;;;;31.10;40.22;100892.38;4936092;29;20079;-96
2021/08/22 08:52:14;;;;;;;3.50;1.00;;;;;;;30.44;42.29;100894.78;4936187;29;20082;-96
2021/08/22 08:55:09;;;;;;;7.72;1.00;;;;;;;29.74;41.97;100894.09;4936075;29;20490;-96
2021/08/22 08:57:34;;;;;;;2.67;1.00;;;;;;;29.38;43.75;100898.25;4918847;29;20119;-96
2021/08/22 09:00:00;;;;;;;6.95;1.05;;;;;;;29.17;46.68;100902.97;4936310;29;20119;-96
2021/08/22 09:02:25;;;;;;;2.38;1.00;;;;;;;29.90;44.54;100904.41;4935599;29;20028;-96
2021/08/22 09:05:32;;;;;;;2.75;1.20;;;;;;;30.56;40.17;100902.16;4935993;29;20024;-96
2021/08/22 09:08:19;;;;;;;1.90;0.65;;;;;;;31.06;42.02;100915.59;4934922;29;20114;-96
2021/08/22 09:11:23;;;;;;;5.82;1.27;;;;;;;31.85;40.31;100912.00;4918291;29;20550;-96
2021/08/22 09:14:10;;;;;;;2.72;0.93;;;;;;;32.17;38.50;100912.53;4935890;29;20102;-96
2021/08/22 09:17:26;;;;;;;2.78;0.75;;;;;;;33.65;37.56;100927.63;4918458;29;20034;-96
2021/08/22 09:20:30;;;;;;;2.15;0.40;;;;;;;33.40;37.09;100923.38;4886867;29;20047;-96
2021/08/22 09:23:33;;;;;;;3.30;0.70;;;;;;;33.85;34.82;100922.56;4880948;29;20035;-96
2021/08/22 09:26:40;;;;;;;1.80;0.70;;;;;;;32.20;37.03;100934.63;4919114;29;20039;-96
2021/08/22 09:29:51;;;;;;;2.67;0.50;;;;;;;31.78;39.27;100931.13;4842887;29;20124;-96
2021/08/22 09:32:45;;;;;;;1.98;0.60;;;;;;;32.29;38.11;100921.53;4918382;29;20035;-96
2021/08/22 09:35:25;;;;;;;3.65;0.85;;;;;;;32.04;38.83;100935.34;4934756;29;20478;-96
2021/08/22 09:38:09;;;;;;;3.15;1.38;;;;;;;33.03;38.78;100933.75;4934700;29;20036;-94
2021/08/22 09:41:32;;;;;;;2.88;0.50;;;;;;;32.34;37.67;100939.84;4934894;29;20032;-96
2021/08/22 09:44:35;;;;;;;2.42;0.77;;;;;;;32.82;36.04;100941.47;4842117;29;20068;-96
2021/08/22 09:47:12;;;;;;;3.08;0.68;;;;;;;33.22;37.71;100942.59;4842057;29;20042;-95
2021/08/22 09:50:15;;;;;;;1.17;0.60;;;;;;;32.36;38.35;100948.59;4918908;29;20176;-96
2021/08/22 09:53:02;;;;;;;1.58;0.73;;;;;;;30.56;40.24;100948.25;4917550;29;20462;-95
2021/08/22 09:56:00;;;;;;;1.35;0.70;;;;;;;31.65;39.04;100953.03;4934516;29;20035;-94
2021/08/22 09:59:00;;;;;;;1.58;0.65;;;;;;;31.99;39.17;100962.31;4917328;29;20054;-95
2021/08/22 10:01:46;;;;;;;2.10;0.80;;;;;;;31.28;39.71;100958.50;4934382;29;20390;-95
2021/08/22 10:04:30;;;;;;;3.08;0.80;;;;;;;30.60;40.99;100968.41;4934242;29;20059;-95
2021/08/22 10:07:10;;;;;;;15.52;2.25;;;;;;;29.61;43.02;100976.19;4934107;29;20032;-95
2021/08/22 10:09:41;;;;;;;3.30;1.00;;;;;;;29.46;44.07;100973.75;4936178;29;20023;-94
2021/08/22 10:12:07;;;;;;;2.45;0.73;;;;;;;29.44;44.37;100979.41;4920758;29;20083;-94
2021/08/22 10:14:36;;;;;;;3.90;0.80;;;;;;;29.58;44.42;100979.31;4920477;29;20040;-94
2021/08/22 10:17:02;;;;;;;3.95;1.00;;;;;;;29.14;44.55;100970.97;4920551;29;20474;-94
2021/08/22 10:19:28;;;;;;;4.10;1.00;;;;;;;29.02;44.13;100967.25;4920226;29;20035;-95
2021/08/22 10:22:11;;;;;;;2.97;0.88;;;;;;;30.82;42.00;100971.53;4937523;29;20031;-95
2021/08/22 10:24:36;;;;;;;2.30;0.95;;;;;;;30.84;41.17;100974.84;4920459;29;20023;-95
2021/08/22 10:27:03;;;;;;;2.00;0.70;;;;;;;29.65;43.42;100972.00;4937504;29;20352;-94
2021/08/22 10:29:32;;;;;;;2.28;0.80;;;;;;;29.48;42.82;100993.28;4937215;29;20031;-94
2021/08/22 10:31:58;;;;;;;2.25;0.40;;;;;;;28.65;43.14;100983.09;4937155;29;20494;-94
2021/08/22 10:34:28;;;;;;;1.92;0.65;;;;;;;28.10;45.23;100991.38;4937241;29;20035;-95
2021/08/22 10:36:54;;;;;;;2.83;0.65;;;;;;;27.95;46.66;100991.59;4920132;29;20552;-95
2021/08/22 10:39:21;;;;;;;3.85;0.80;;;;;;;28.50;46.80;100996.81;4937186;29;20071;-94
2021/08/22 10:41:47;;;;;;;2.05;0.70;;;;;;;28.52;45.78;100993.94;4937259;29;20023;-94
2021/08/22 10:44:38;;;;;;;2.72;0.95;;;;;;;28.58;45.06;100999.34;4937014;29;20035;-94
2021/08/22 10:47:19;;;;;;;3.33;1.13;;;;;;;28.72;46.16;101010.97;4937522;29;20482;-94
2021/08/22 10:49:54;;;;;;;1.85;0.73;;;;;;;28.12;44.88;101004.69;4937242;29;20118;-93
2021/08/22 10:52:23;;;;;;;2.08;0.55;;;;;;;27.41;46.42;101005.88;4920120;29;20118;-94
2021/08/22 10:55:17;;;;;;;4.00;1.10;;;;;;;29.12;43.90;101010.09;4937037;29;20031;-93
2021/08/22 10:57:45;;;;;;;4.53;0.70;;;;;;;30.08;43.04;101009.25;4936890;29;20023;-93
2021/08/22 11:00:26;;;;;;;1.58;0.50;;;;;;;31.92;39.95;101008.59;4937468;29;20083;-93
2021/08/22 11:02:59;;;;;;;2.97;0.65;;;;;;;33.49;38.06;101003.59;4936737;29;20110;-92
2021/08/22 11:05:36;;;;;;;1.25;0.45;;;;;;;33.54;36.49;101000.13;4919761;29;20042;-93
2021/08/22 11:08:13;;;;;;;3.55;0.60;;;;;;;33.41;35.92;101014.81;4936820;29;20046;-94
2021/08/22 11:10:39;;;;;;;0.88;0.45;;;;;;;32.95;35.38;101005.69;4936776;29;20055;-92
2021/08/22 11:13:04;;;;;;;3.22;0.60;;;;;;;32.07;37.36;101010.94;4936659;29;20028;-93
2021/08/22 11:15:31;;;;;;;3.00;0.63;;;;;;;31.82;37.62;101013.78;4919777;29;20028;-93
2021/08/22 11:18:03;;;;;;;6.13;0.68;;;;;;;32.36;38.08;101008.38;4941362;29;20048;-93
2021/08/22 11:20:31;;;;;;;1.65;0.65;;;;;;;32.22;36.19;101002.31;4942151;29;20027;-93
2021/08/22 11:23:03;;;;;;;1.65;0.73;;;;;;;32.56;37.34;101008.06;4941616;29;20028;-93
2021/08/22 11:25:29;;;;;;;2.25;0.50;;;;;;;31.61;38.70;101004.22;4942473;29;20024;-93
2021/08/22 11:28:08;;;;;;;1.25;0.30;;;;;;;31.08;38.43;101008.38;4943714;29;20024;-92
2021/08/22 11:30:34;;;;;;;1.23;0.50;;;;;;;30.42;40.00;101021.50;4944637;29;20046;-94
2021/08/22 11:33:00;;;;;;;2.03;0.38;;;;;;;29.74;41.17;101013.19;4946107;29;20031;-94